createdAt,value
2023-01-25T00:00:21.086Z,6.60
2023-01-25T00:02:48.104Z,6.07
2023-01-25T00:05:15.259Z,5.93
2023-01-25T00:07:42.247Z,5.80
2023-01-25T00:10:09.941Z,5.70
2023-01-25T00:12:36.972Z,5.70
2023-01-25T00:15:04.259Z,6.10
2023-01-25T00:17:31.289Z,5.60
2023-01-25T00:19:58.285Z,6.23
2023-01-25T00:22:25.234Z,6.50
2023-01-25T00:24:52.217Z,6.33
2023-01-25T00:27:19.430Z,6.87
2023-01-25T00:29:46.485Z,6.83
2023-01-25T00:32:13.458Z,6.43
2023-01-25T00:34:48.815Z,6.37
2023-01-25T00:37:19.953Z,7.07
2023-01-25T00:39:47.351Z,6.90
2023-01-25T00:42:16.364Z,7.50
2023-01-25T00:44:45.399Z,6.30
2023-01-25T00:47:13.458Z,7.13
2023-01-25T00:49:42.397Z,7.73
2023-01-25T00:52:09.724Z,6.73
2023-01-25T00:54:36.762Z,7.80
2023-01-25T00:57:04.258Z,7.73
2023-01-25T00:59:31.494Z,7.97
2023-01-25T01:01:59.042Z,8.13
2023-01-25T01:04:26.258Z,7.93
2023-01-25T01:06:54.269Z,7.70
2023-01-25T01:09:23.212Z,7.57
2023-01-25T01:11:52.552Z,7.10
2023-01-25T01:14:20.832Z,7.60
2023-01-25T01:16:48.053Z,6.37
2023-01-25T01:19:15.275Z,6.67
2023-01-25T01:21:42.751Z,6.40
2023-01-25T01:24:11.087Z,6.73
2023-01-25T01:26:38.235Z,6.47
2023-01-25T01:29:05.894Z,6.90
2023-01-25T01:31:34.129Z,6.83
2023-01-25T01:34:14.523Z,6.27
2023-01-25T01:36:42.250Z,7.30
2023-01-25T01:39:09.411Z,6.87
2023-01-25T01:41:37.138Z,7.73
2023-01-25T01:44:06.335Z,6.93
2023-01-25T01:46:37.557Z,6.43
2023-01-25T01:49:24.168Z,6.23
2023-01-25T01:51:59.796Z,6.60
2023-01-25T01:54:55.883Z,6.63
2023-01-25T01:57:28.252Z,6.80
2023-01-25T02:00:02.682Z,7.40
2023-01-25T02:02:41.096Z,6.80
2023-01-25T02:05:17.742Z,7.03
2023-01-25T02:07:48.235Z,6.60
2023-01-25T02:10:16.124Z,6.83
2023-01-25T02:12:45.900Z,7.13
2023-01-25T02:15:13.026Z,7.80
2023-01-25T02:17:41.680Z,7.93
2023-01-25T02:20:14.732Z,7.23
2023-01-25T02:23:16.825Z,7.13
2023-01-25T02:25:44.051Z,7.30
2023-01-25T02:28:30.296Z,7.57
2023-01-25T02:30:57.414Z,7.43
2023-01-25T02:33:26.002Z,8.13
2023-01-25T02:36:24.877Z,7.00
2023-01-25T02:39:00.122Z,8.27
2023-01-25T02:41:30.453Z,7.20
2023-01-25T02:43:58.344Z,7.70
2023-01-25T02:46:32.107Z,7.60
2023-01-25T02:49:00.669Z,7.07
2023-01-25T02:51:31.490Z,7.87
2023-01-25T02:53:59.771Z,7.33
2023-01-25T02:56:27.130Z,7.60
2023-01-25T02:58:54.384Z,7.77
2023-01-25T03:01:21.533Z,7.13
2023-01-25T03:03:48.592Z,7.63
2023-01-25T03:06:16.313Z,8.10
2023-01-25T03:08:43.512Z,7.23
2023-01-25T03:11:10.543Z,7.13
2023-01-25T03:13:38.098Z,7.67
2023-01-25T03:16:08.964Z,7.30
2023-01-25T03:18:36.998Z,7.27
2023-01-25T03:21:17.133Z,7.60
2023-01-25T03:23:46.188Z,7.63
2023-01-25T03:26:19.139Z,6.87
2023-01-25T03:29:03.897Z,7.30
2023-01-25T03:31:31.056Z,7.57
2023-01-25T03:33:58.046Z,7.60
2023-01-25T03:36:29.689Z,7.73
2023-01-25T03:38:57.132Z,7.77
2023-01-25T03:41:24.425Z,7.20
2023-01-25T03:43:51.415Z,6.80
2023-01-25T03:46:18.351Z,7.97
2023-01-25T03:48:45.467Z,7.43
2023-01-25T03:51:12.540Z,6.53
2023-01-25T03:53:40.039Z,7.40
2023-01-25T03:56:17.590Z,7.20
2023-01-25T03:58:51.071Z,7.23
2023-01-25T04:01:18.348Z,7.77
2023-01-25T04:03:45.361Z,6.87
2023-01-25T04:06:12.455Z,8.10
2023-01-25T04:08:39.808Z,7.80
2023-01-25T04:11:09.401Z,8.33
2023-01-25T04:13:37.971Z,8.80
2023-01-25T04:16:12.287Z,7.13
2023-01-25T04:18:59.566Z,7.10
2023-01-25T04:21:28.309Z,7.30
2023-01-25T04:23:56.038Z,6.97
2023-01-25T04:26:23.665Z,7.83
2023-01-25T04:28:55.349Z,9.43
2023-01-25T04:31:22.692Z,7.10
2023-01-25T04:33:50.719Z,7.37
2023-01-25T04:36:19.933Z,7.07
2023-01-25T04:38:48.593Z,7.37
2023-01-25T04:41:15.625Z,7.70
2023-01-25T04:43:44.194Z,6.90
2023-01-25T04:46:11.683Z,7.47
2023-01-25T04:48:39.509Z,7.33
2023-01-25T04:51:09.481Z,7.60
2023-01-25T04:53:36.870Z,7.40
2023-01-25T04:56:06.831Z,7.33
2023-01-25T04:58:42.031Z,6.83
2023-01-25T05:01:09.369Z,8.10
2023-01-25T05:03:36.513Z,7.50
2023-01-25T05:06:06.619Z,7.73
2023-01-25T05:08:33.954Z,7.33
2023-01-25T05:11:03.075Z,7.20
2023-01-25T05:13:40.105Z,7.00
2023-01-25T05:16:22.211Z,7.60
2023-01-25T05:18:49.875Z,7.33
2023-01-25T05:21:39.596Z,7.27
2023-01-25T05:24:08.061Z,7.50
2023-01-25T05:26:54.127Z,8.10
2023-01-25T05:29:21.781Z,7.47
2023-01-25T05:31:58.628Z,8.47
2023-01-25T05:34:26.926Z,8.03
2023-01-25T05:36:54.457Z,7.97
2023-01-25T05:39:21.739Z,7.20
2023-01-25T05:41:49.528Z,7.87
2023-01-25T05:44:16.929Z,7.27
2023-01-25T05:46:47.046Z,6.87
2023-01-25T05:49:17.066Z,7.47
2023-01-25T05:51:44.981Z,7.67
2023-01-25T05:54:14.388Z,8.13
2023-01-25T05:56:45.602Z,7.33
2023-01-25T05:59:12.938Z,7.67
2023-01-25T06:01:40.305Z,7.67
2023-01-25T06:04:08.238Z,7.43
2023-01-25T06:06:35.660Z,7.33
2023-01-25T06:09:03.890Z,7.40
2023-01-25T06:11:31.022Z,8.47
2023-01-25T06:13:58.459Z,7.47
2023-01-25T06:16:27.523Z,7.50
2023-01-25T06:19:19.972Z,6.73
2023-01-25T06:22:09.267Z,7.43
2023-01-25T06:24:36.479Z,7.87
2023-01-25T06:27:03.521Z,8.57
2023-01-25T06:29:30.533Z,8.83
2023-01-25T06:31:57.587Z,8.03
2023-01-25T06:34:25.141Z,8.43
2023-01-25T06:36:53.319Z,8.27
2023-01-25T06:39:20.387Z,7.33
2023-01-25T06:41:47.560Z,8.43
2023-01-25T06:44:14.571Z,7.07
2023-01-25T06:46:41.748Z,8.20
2023-01-25T06:49:10.155Z,8.03
2023-01-25T06:51:37.219Z,8.50
2023-01-25T06:54:04.591Z,8.30
2023-01-25T06:56:32.943Z,8.90
2023-01-25T06:58:59.996Z,8.47
2023-01-25T07:01:27.647Z,8.50
2023-01-25T07:03:57.428Z,8.50
2023-01-25T07:06:25.764Z,8.57
2023-01-25T07:08:53.354Z,6.83
2023-01-25T07:11:20.476Z,7.67
2023-01-25T07:13:48.668Z,7.97
2023-01-25T07:16:18.283Z,7.83
2023-01-25T07:18:45.685Z,9.80
2023-01-25T07:21:21.344Z,8.57
2023-01-25T07:23:50.240Z,8.43
2023-01-25T07:26:18.447Z,8.37
2023-01-25T07:28:47.116Z,8.70
2023-01-25T07:31:15.226Z,8.83
2023-01-25T07:33:42.600Z,7.87
2023-01-25T07:36:11.057Z,8.40
2023-01-25T07:38:38.486Z,7.70
2023-01-25T07:41:05.884Z,8.07
2023-01-25T07:43:33.024Z,7.90
2023-01-25T07:46:11.383Z,7.70
2023-01-25T07:48:39.916Z,7.83
2023-01-25T07:51:12.904Z,7.77
2023-01-25T07:53:43.907Z,7.67
2023-01-25T07:56:12.340Z,8.27
2023-01-25T07:58:40.165Z,7.70
2023-01-25T08:01:16.155Z,7.47
2023-01-25T08:03:46.288Z,8.53
2023-01-25T08:06:14.079Z,7.67
2023-01-25T08:08:44.774Z,7.47
2023-01-25T08:11:15.784Z,7.23
2023-01-25T08:13:46.442Z,7.93
2023-01-25T08:16:14.889Z,8.27
2023-01-25T08:18:41.889Z,7.63
2023-01-25T08:21:09.763Z,7.80
2023-01-25T08:23:36.921Z,8.53
2023-01-25T08:26:12.595Z,8.30
2023-01-25T08:28:40.350Z,7.93
2023-01-25T08:31:09.377Z,9.33
2023-01-25T08:33:36.582Z,8.60
2023-01-25T08:36:04.254Z,8.17
2023-01-25T08:38:32.177Z,8.67
2023-01-25T08:41:10.071Z,8.50
2023-01-25T08:43:37.703Z,8.50
2023-01-25T08:46:05.292Z,7.57
2023-01-25T08:48:32.573Z,8.47
2023-01-25T08:51:00.492Z,8.10
2023-01-25T08:53:29.013Z,8.47
2023-01-25T08:55:56.100Z,8.57
2023-01-25T08:58:23.171Z,8.57
2023-01-25T09:00:50.207Z,9.37
2023-01-25T09:03:18.293Z,8.87
2023-01-25T09:05:45.325Z,8.47
2023-01-25T09:08:12.318Z,9.13
2023-01-25T09:10:39.357Z,9.57
2023-01-25T09:13:08.379Z,8.00
2023-01-25T09:15:36.020Z,7.47
2023-01-25T09:18:03.461Z,8.77
2023-01-25T09:20:33.210Z,7.43
2023-01-25T09:23:01.536Z,8.80
2023-01-25T09:25:28.565Z,8.27
2023-01-25T09:27:55.517Z,8.23
2023-01-25T09:30:33.607Z,8.23
2023-01-25T09:33:06.065Z,7.87
2023-01-25T09:35:35.722Z,7.73
2023-01-25T09:38:03.071Z,7.90
2023-01-25T09:40:41.521Z,7.13
2023-01-25T09:43:27.810Z,7.87
2023-01-25T09:45:54.886Z,7.63
2023-01-25T09:48:21.849Z,6.37
2023-01-25T09:50:54.558Z,8.50
2023-01-25T09:53:24.471Z,7.70
2023-01-25T09:55:58.923Z,7.70
2023-01-25T09:58:36.577Z,7.17
2023-01-25T10:01:14.481Z,7.23
2023-01-25T10:04:09.593Z,7.20
2023-01-25T10:06:40.658Z,5.63
2023-01-25T10:09:32.023Z,7.40
2023-01-25T10:12:11.843Z,6.90
2023-01-25T10:14:38.980Z,7.60
2023-01-25T10:17:17.445Z,6.70
2023-01-25T10:20:08.080Z,6.67
2023-01-25T10:22:44.035Z,6.33
2023-01-25T10:25:34.290Z,5.07
2023-01-25T10:28:39.328Z,6.77
2023-01-25T10:31:20.549Z,6.53
2023-01-25T10:33:48.984Z,6.77
2023-01-25T10:36:25.560Z,7.03
2023-01-25T10:38:59.255Z,6.83
2023-01-25T10:42:00.498Z,6.63
2023-01-25T10:44:29.109Z,6.50
2023-01-25T10:47:18.482Z,5.93
2023-01-25T10:49:54.909Z,6.97
2023-01-25T10:52:27.624Z,6.30
2023-01-25T11:11:31.893Z,6.37
2023-01-25T11:14:55.293Z,5.90
2023-01-25T11:17:41.028Z,6.77
2023-01-25T11:50:19.237Z,6.50
2023-01-25T11:54:00.961Z,7.03
2023-01-25T11:56:52.682Z,6.53
2023-01-25T11:59:51.971Z,6.10
2023-01-25T12:02:49.780Z,6.70
2023-01-25T12:05:28.882Z,5.70
2023-01-25T12:08:24.781Z,6.07
2023-01-25T12:11:10.798Z,6.57
2023-01-25T12:14:04.437Z,5.97
2023-01-25T12:16:52.248Z,6.30
2023-01-25T12:19:21.439Z,5.10
2023-01-25T12:22:30.637Z,6.07
2023-01-25T12:25:16.831Z,5.93
2023-01-25T12:28:28.110Z,5.13
2023-01-25T12:31:23.451Z,5.20
2023-01-25T12:33:58.207Z,4.67
2023-01-25T12:36:37.775Z,5.03
2023-01-25T12:39:12.519Z,5.50
2023-01-25T12:41:59.143Z,5.00
2023-01-25T12:44:37.406Z,4.83
2023-01-25T12:47:37.838Z,5.03
2023-01-25T12:50:31.871Z,5.40
2023-01-25T12:53:26.226Z,5.97
2023-01-25T12:55:55.825Z,5.23
2023-01-25T12:58:51.643Z,7.20
2023-01-25T13:01:49.788Z,5.00
2023-01-25T13:04:23.719Z,4.23
2023-01-25T13:07:17.607Z,5.17
2023-01-25T13:10:17.788Z,4.87
2023-01-25T13:12:57.951Z,5.23
2023-01-25T13:15:45.681Z,4.73
2023-01-25T13:18:35.375Z,5.03
2023-01-25T13:21:07.338Z,4.60
2023-01-25T13:23:47.606Z,5.97
2023-01-25T13:26:29.661Z,5.43
2023-01-25T13:29:00.395Z,4.93
2023-01-25T13:31:51.645Z,5.47
2023-01-25T13:34:47.653Z,5.20
2023-01-25T13:37:27.741Z,5.07
2023-01-25T13:40:25.758Z,5.30
2023-01-25T13:43:21.546Z,4.67
2023-01-25T13:45:57.393Z,4.97
2023-01-25T13:48:29.371Z,5.10
2023-01-25T13:51:14.198Z,5.40
2023-01-25T13:53:43.399Z,5.00
2023-01-25T13:56:32.597Z,4.77
2023-01-25T13:58:59.948Z,4.40
2023-01-25T14:01:30.801Z,4.73
2023-01-25T14:04:04.355Z,4.80
2023-01-25T14:06:39.605Z,5.50
2023-01-25T14:09:16.795Z,5.07
2023-01-25T14:11:49.561Z,4.83
2023-01-25T14:14:20.768Z,5.20
2023-01-25T14:17:00.693Z,5.37
2023-01-25T14:19:30.013Z,5.33
2023-01-25T14:22:28.284Z,5.17
2023-01-25T14:25:07.555Z,5.23
2023-01-25T14:27:37.472Z,4.87
2023-01-25T14:30:05.827Z,5.10
2023-01-25T14:32:33.188Z,6.23
2023-01-25T14:35:43.534Z,7.30
2023-01-25T14:38:24.279Z,7.90
2023-01-25T14:40:58.447Z,7.33
2023-01-25T14:43:26.486Z,8.30
2023-01-25T14:45:53.787Z,8.43
2023-01-25T14:49:06.280Z,8.10
2023-01-25T14:51:33.937Z,7.97
2023-01-25T14:54:10.725Z,7.50
2023-01-25T14:56:44.832Z,7.97
2023-01-25T14:59:41.565Z,7.60
2023-01-25T15:02:39.688Z,8.30
2023-01-25T15:05:16.343Z,8.03
2023-01-25T15:07:49.493Z,8.23
2023-01-25T15:10:29.561Z,8.77
2023-01-25T15:13:17.722Z,9.80
2023-01-25T15:15:52.557Z,10.03
2023-01-25T15:18:41.311Z,8.50
2023-01-25T15:21:16.680Z,10.10
2023-01-25T15:23:46.013Z,9.53
2023-01-25T15:26:15.488Z,8.87
2023-01-25T15:28:42.535Z,10.03
2023-01-25T15:31:17.190Z,10.13
2023-01-25T15:33:44.553Z,10.13
2023-01-25T15:36:14.461Z,11.23
2023-01-25T15:38:42.076Z,11.40
2023-01-25T15:41:09.613Z,10.17
2023-01-25T15:43:36.794Z,11.90
2023-01-25T15:46:05.721Z,11.60
2023-01-25T15:48:42.788Z,11.30
2023-01-25T15:51:09.870Z,11.87
2023-01-25T15:53:36.946Z,12.07
2023-01-25T15:56:06.809Z,12.57
2023-01-25T15:58:38.536Z,13.10
2023-01-25T16:01:06.021Z,13.00
2023-01-25T16:03:33.311Z,11.73
2023-01-25T16:06:02.047Z,11.90
2023-01-25T16:08:29.759Z,11.43
2023-01-25T16:10:57.261Z,13.30
2023-01-25T16:13:24.945Z,12.07
2023-01-25T16:15:55.890Z,12.97
2023-01-25T16:18:24.268Z,14.03
2023-01-25T16:20:51.223Z,13.53
2023-01-25T16:23:18.183Z,13.80
2023-01-25T16:25:48.506Z,13.17
2023-01-25T16:28:16.411Z,12.97
2023-01-25T16:30:45.232Z,14.40
2023-01-25T16:33:12.444Z,13.10
2023-01-25T16:35:39.490Z,11.93
2023-01-25T16:38:06.426Z,14.13
2023-01-25T16:40:39.841Z,14.53
2023-01-25T16:43:06.890Z,13.57
2023-01-25T16:45:33.918Z,15.23
2023-01-25T16:48:02.027Z,15.77
2023-01-25T16:50:29.161Z,13.83
2023-01-25T16:52:57.029Z,14.80
2023-01-25T16:55:23.980Z,13.47
2023-01-25T16:57:51.763Z,15.13
2023-01-25T17:00:19.012Z,15.33
2023-01-25T17:02:58.269Z,14.97
2023-01-25T17:05:33.754Z,15.07
2023-01-25T17:08:00.898Z,15.10
2023-01-25T17:10:28.976Z,16.20
2023-01-25T17:12:56.125Z,16.07
2023-01-25T17:15:23.159Z,15.43
2023-01-25T17:17:50.960Z,14.87
2023-01-25T17:20:18.065Z,14.93
2023-01-25T17:22:49.645Z,15.43
2023-01-25T17:25:17.499Z,14.20
2023-01-25T17:27:44.534Z,16.07
2023-01-25T17:30:12.302Z,16.03
2023-01-25T17:32:40.986Z,15.87
2023-01-25T17:35:08.432Z,15.93
2023-01-25T17:37:35.407Z,14.83
2023-01-25T17:40:02.437Z,14.53
2023-01-25T17:42:29.429Z,12.43
2023-01-25T17:44:56.390Z,13.13
2023-01-25T17:47:23.320Z,9.47
2023-01-25T17:49:50.609Z,8.80
2023-01-25T17:52:17.610Z,7.97
2023-01-25T17:54:44.562Z,7.33
2023-01-25T17:57:11.562Z,8.53
2023-01-25T17:59:38.621Z,7.63
2023-01-25T18:02:06.574Z,7.23
2023-01-25T18:04:34.400Z,8.80
2023-01-25T18:07:01.408Z,7.07
2023-01-25T18:09:28.584Z,7.60
2023-01-25T18:11:55.653Z,8.70
2023-01-25T18:14:22.653Z,8.20
2023-01-25T18:16:50.495Z,8.93
2023-01-25T18:19:17.501Z,9.67
2023-01-25T18:21:44.609Z,8.20
2023-01-25T18:24:34.133Z,8.37
2023-01-25T18:27:06.460Z,8.00
2023-01-25T18:29:54.430Z,11.60
2023-01-25T18:32:21.737Z,7.80
2023-01-25T18:34:48.788Z,9.90
2023-01-25T18:37:21.043Z,10.97
2023-01-25T18:39:50.166Z,9.93
2023-01-25T18:42:17.536Z,10.03
2023-01-25T18:44:48.235Z,10.23
2023-01-25T18:47:19.750Z,9.07
2023-01-25T18:49:49.270Z,9.50
2023-01-25T18:52:18.449Z,10.73
2023-01-25T18:54:46.077Z,9.70
2023-01-25T18:57:14.123Z,11.90
2023-01-25T18:59:41.823Z,11.90
2023-01-25T19:02:12.195Z,11.67
2023-01-25T19:04:39.429Z,11.93
2023-01-25T19:07:06.859Z,10.80
2023-01-25T19:09:33.800Z,11.87
2023-01-25T19:12:00.833Z,9.67
2023-01-25T19:14:27.866Z,12.27
2023-01-25T19:16:54.934Z,10.40
2023-01-25T19:19:22.467Z,11.07
2023-01-25T19:21:49.548Z,11.73
2023-01-25T19:24:19.594Z,12.00
2023-01-25T19:26:47.451Z,13.53
2023-01-25T19:29:15.274Z,13.27
2023-01-25T19:31:42.538Z,13.77
2023-01-25T19:34:09.742Z,13.87
2023-01-25T19:36:39.390Z,14.43
2023-01-25T19:39:10.123Z,13.77
2023-01-25T19:41:39.008Z,14.03
2023-01-25T19:44:07.321Z,15.27
2023-01-25T19:46:36.291Z,13.20
2023-01-25T19:49:05.899Z,11.47
2023-01-25T19:51:35.237Z,11.30
2023-01-25T19:54:08.120Z,11.20
2023-01-25T19:56:39.008Z,9.80
2023-01-25T19:59:08.480Z,11.07
2023-01-25T20:01:36.655Z,11.47
2023-01-25T20:04:06.171Z,10.27
2023-01-25T20:06:33.293Z,10.43
2023-01-25T20:09:00.359Z,10.07
2023-01-25T20:11:29.914Z,11.07
2023-01-25T20:13:59.516Z,9.80
2023-01-25T20:16:27.838Z,11.47
2023-01-25T20:18:56.903Z,10.73
2023-01-25T20:21:25.309Z,11.33
2023-01-25T20:23:56.095Z,11.37
2023-01-25T20:26:25.609Z,9.57
2023-01-25T20:28:55.373Z,9.77
2023-01-25T20:31:51.980Z,10.47
2023-01-25T20:34:21.580Z,9.87
2023-01-25T20:36:49.773Z,10.70
2023-01-25T20:39:21.733Z,9.97
2023-01-25T20:41:53.298Z,10.53
2023-01-25T20:44:21.148Z,10.63
2023-01-25T20:46:48.781Z,12.20
2023-01-25T20:49:17.679Z,11.27
2023-01-25T20:51:45.543Z,11.97
2023-01-25T20:54:12.954Z,12.03
2023-01-25T20:56:40.224Z,12.03
2023-01-25T20:59:07.284Z,11.33
2023-01-25T21:01:37.107Z,11.57
2023-01-25T21:04:06.367Z,11.17
2023-01-25T21:06:35.301Z,10.87
2023-01-25T21:09:03.082Z,11.43
2023-01-25T21:11:31.093Z,11.60
2023-01-25T21:13:59.565Z,10.63
2023-01-25T21:16:27.208Z,10.60
2023-01-25T21:18:59.099Z,10.53
2023-01-25T21:21:27.818Z,11.93
2023-01-25T21:23:57.795Z,10.40
2023-01-25T21:26:28.093Z,10.60
2023-01-25T21:28:55.395Z,11.33
2023-01-25T21:31:25.106Z,11.17
2023-01-25T21:33:52.539Z,11.27
2023-01-25T21:36:20.200Z,11.67
2023-01-25T21:38:49.556Z,11.73
2023-01-25T21:41:24.167Z,10.47
2023-01-25T21:44:11.380Z,12.07
2023-01-25T21:46:39.136Z,11.30
2023-01-25T21:49:27.078Z,11.70
2023-01-25T21:51:56.445Z,11.07
2023-01-25T21:54:25.419Z,11.07
2023-01-25T21:56:54.941Z,10.73
2023-01-25T21:59:22.702Z,11.53
2023-01-25T22:01:50.698Z,10.60
2023-01-25T22:04:19.009Z,11.10
2023-01-25T22:06:46.350Z,12.30
2023-01-25T22:09:13.684Z,10.90
2023-01-25T22:11:41.094Z,10.97
2023-01-25T22:14:08.122Z,11.97
2023-01-25T22:16:35.159Z,10.77
2023-01-25T22:19:02.121Z,11.03
2023-01-25T22:21:32.234Z,9.97
2023-01-25T22:24:01.635Z,10.17
2023-01-25T22:26:53.300Z,11.00
2023-01-25T22:29:20.698Z,12.17
2023-01-25T22:31:47.837Z,10.67
2023-01-25T22:34:14.784Z,10.77
2023-01-25T22:36:41.834Z,11.83
2023-01-25T22:39:12.888Z,11.30
2023-01-25T22:41:40.332Z,10.87
2023-01-25T22:44:07.339Z,12.43
2023-01-25T22:46:34.599Z,12.00
2023-01-25T22:49:02.534Z,11.00
2023-01-25T22:51:30.736Z,11.53
2023-01-25T22:53:59.192Z,10.63
2023-01-25T22:56:34.515Z,11.47
2023-01-25T22:59:02.053Z,11.70
2023-01-25T23:01:31.918Z,11.63
2023-01-25T23:03:59.006Z,11.53
2023-01-25T23:06:31.745Z,12.40
2023-01-25T23:09:00.921Z,12.63
2023-01-25T23:11:32.321Z,12.90
2023-01-25T23:14:18.541Z,13.13
2023-01-25T23:16:47.579Z,16.70
2023-01-25T23:19:14.816Z,14.97
2023-01-25T23:21:42.548Z,12.83
2023-01-25T23:24:10.010Z,12.07
2023-01-25T23:26:37.926Z,12.73
2023-01-25T23:29:12.425Z,12.53
2023-01-25T23:31:39.687Z,12.43
2023-01-25T23:34:07.524Z,11.60
2023-01-25T23:36:38.697Z,11.67
2023-01-25T23:39:05.860Z,12.03
2023-01-25T23:41:32.955Z,11.93
2023-01-25T23:44:00.906Z,10.93
2023-01-25T23:46:28.579Z,10.87
2023-01-25T23:48:55.907Z,11.33
2023-01-25T23:51:22.968Z,10.83
2023-01-25T23:53:50.154Z,11.67
2023-01-25T23:56:19.650Z,13.27
2023-01-25T23:58:47.396Z,13.57
